Ironton, Indiana
Current Conditions -  °F | °C
As of 11:15 AM on Thursday 30 Oct 2014 (Local Time) from KDCY Reporting Station
Clear Clear  
Wind Chill: 49°   Ceiling: Unl
Heat Index: 49°   Visibility: 10mi
Dew Point: 35°   Wind: 3mph
Humidity: 59%   Direction: 110°ESE
Pressure: 30.16"   Gusts: NA
Location:  38.6262°N, 86.7615°W
Report Text: KDCY 301615Z AUTO 11003KT 10SM CLR 10/02 A3016 RMK AO2 T00960019
Loading
Personal Weather Stations






























Interactive Weather Map
Tropical Storm Tracking
New forecast layout! Learn more

10-Day Weather Forecast

Advertisements
Track Severe Weather on mobile